Time;durP1;ratioP1;P1;durP2;ratioP2;P2;SDS_P1;SDS_P2;PMS_P1;PMS_P2;Temp;Humidity;BMP_temperature;BMP_pressure;BME280_temperature;BME280_humidity;BME280_pressure;Samples;Min_cycle;Max_cycle;Signal;HPM_P1;HPM_P2
2022/09/17 00:01:05;;;;;;;21.25;4.30;;;10.00;99.90;;;;;;5023447;28;21330;-74
2022/09/17 00:03:33;;;;;;;27.60;4.32;;;10.00;99.90;;;;;;5029716;28;20543;-75
2022/09/17 00:06:04;;;;;;;22.08;4.00;;;9.90;99.90;;;;;;5029881;28;20384;-73
2022/09/17 00:08:29;;;;;;;24.80;4.28;;;9.90;99.90;;;;;;5024399;28;20038;-73
2022/09/17 00:10:55;;;;;;;20.10;3.38;;;9.90;99.90;;;;;;5008280;28;20184;-74
2022/09/17 00:13:21;;;;;;;31.08;4.05;;;9.90;99.90;;;;;;5031008;28;20493;-74
2022/09/17 00:15:47;;;;;;;26.08;4.13;;;9.90;99.90;;;;;;5001174;28;20053;-74
2022/09/17 00:18:13;;;;;;;20.63;4.18;;;9.90;99.90;;;;;;5025013;28;20436;-74
2022/09/17 00:20:45;;;;;;;18.58;3.60;;;10.10;99.90;;;;;;5035035;28;20091;-76
2022/09/17 00:23:12;;;;;;;19.13;3.47;;;9.90;99.90;;;;;;5027013;28;20132;-72
2022/09/17 00:25:39;;;;;;;25.63;4.10;;;10.00;99.90;;;;;;5020687;28;20041;-73
2022/09/17 00:28:04;;;;;;;24.00;4.15;;;9.90;99.90;;;;;;5023016;28;20084;-75
2022/09/17 00:30:30;;;;;;;21.83;4.03;;;9.90;99.90;;;;;;5014013;28;20069;-73
2022/09/17 00:32:57;;;;;;;22.75;3.75;;;9.90;99.90;;;;;;5008973;28;20101;-73
2022/09/17 00:35:26;;;;;;;20.13;3.90;;;9.90;99.90;;;;;;5032716;28;20053;-73
2022/09/17 00:37:52;;;;;;;23.65;4.28;;;9.90;99.90;;;;;;5035874;28;20425;-74
2022/09/17 00:40:19;;;;;;;12.65;3.58;;;10.00;99.90;;;;;;5021880;28;20048;-73
2022/09/17 00:42:45;;;;;;;16.17;2.83;;;10.10;99.90;;;;;;5001659;28;20034;-72
2022/09/17 00:45:11;;;;;;;12.77;2.33;;;10.20;99.90;;;;;;5023749;28;20441;-71
2022/09/17 00:47:46;;;;;;;16.40;2.38;;;10.40;99.90;;;;;;5032640;28;20042;-73
2022/09/17 00:50:17;;;;;;;10.90;2.80;;;10.40;99.90;;;;;;5025459;28;20045;-72
2022/09/17 00:52:46;;;;;;;14.45;2.42;;;10.40;99.90;;;;;;5009461;28;20049;-73
2022/09/17 00:55:26;;;;;;;12.18;2.13;;;10.40;99.90;;;;;;5025157;28;20399;-72
2022/09/17 00:57:55;;;;;;;26.10;4.03;;;10.30;99.90;;;;;;5023396;28;20041;-72
2022/09/17 01:00:21;;;;;;;17.83;2.78;;;10.30;99.90;;;;;;5034209;28;20045;-73
2022/09/17 01:02:47;;;;;;;14.68;2.72;;;10.20;99.90;;;;;;5007003;28;20120;-73
2022/09/17 01:05:14;;;;;;;14.85;2.80;;;10.20;99.90;;;;;;5029840;28;20068;-74
2022/09/17 01:07:58;;;;;;;15.73;2.83;;;10.20;99.90;;;;;;5016005;28;20489;-73
2022/09/17 01:10:57;;;;;;;15.68;3.00;;;10.10;99.90;;;;;;4993295;28;20049;-72
2022/09/17 01:13:51;;;;;;;14.20;2.70;;;10.10;99.90;;;;;;5017966;28;20534;-74
2022/09/17 01:16:34;;;;;;;19.80;2.58;;;10.00;99.90;;;;;;5009223;28;20057;-73
2022/09/17 01:19:22;;;;;;;14.40;2.65;;;10.00;99.90;;;;;;5005221;28;20116;-72
2022/09/17 01:22:04;;;;;;;15.85;2.83;;;9.90;99.90;;;;;;5015910;28;20382;-74
2022/09/17 01:24:57;;;;;;;15.63;2.60;;;9.90;99.90;;;;;;5015171;28;20045;-72
2022/09/17 01:27:54;;;;;;;19.42;3.22;;;9.80;99.90;;;;;;5015867;28;20054;-72
2022/09/17 01:30:28;;;;;;;15.20;2.63;;;9.80;99.90;;;;;;4998317;28;20060;-75
2022/09/17 01:33:12;;;;;;;14.95;2.67;;;9.70;99.90;;;;;;5011317;28;20081;-72
2022/09/17 01:35:45;;;;;;;20.13;3.15;;;9.70;99.90;;;;;;5016005;28;20367;-71
2022/09/17 01:38:22;;;;;;;18.50;3.35;;;9.70;99.90;;;;;;5016068;28;20378;-73
2022/09/17 01:41:00;;;;;;;15.10;3.30;;;9.60;99.90;;;;;;4998526;28;20041;-72
2022/09/17 01:43:41;;;;;;;15.43;3.15;;;9.60;99.90;;;;;;5015651;28;20041;-72
2022/09/17 01:46:15;;;;;;;21.05;3.38;;;9.50;99.90;;;;;;5014848;28;20038;-72
2022/09/17 01:48:45;;;;;;;19.67;3.40;;;9.50;99.90;;;;;;5015299;28;20419;-72
2022/09/17 01:51:16;;;;;;;17.05;3.45;;;9.40;99.90;;;;;;5015184;28;20049;-72
2022/09/17 01:53:56;;;;;;;19.83;3.22;;;9.40;99.90;;;;;;5014718;28;20057;-72
2022/09/17 01:56:26;;;;;;;15.15;3.05;;;9.40;99.90;;;;;;5009039;28;20061;-73
2022/09/17 01:59:00;;;;;;;21.23;3.15;;;9.30;99.90;;;;;;5015114;28;20116;-72
2022/09/17 02:01:30;;;;;;;25.77;3.55;;;9.30;99.90;;;;;;5014988;28;20037;-74
2022/09/17 02:04:03;;;;;;;26.70;3.92;;;9.30;99.90;;;;;;5014944;28;20038;-74
2022/09/17 02:06:35;;;;;;;23.40;3.63;;;9.40;99.90;;;;;;5014896;28;20451;-72
2022/09/17 02:09:27;;;;;;;16.15;3.13;;;9.30;99.90;;;;;;5015124;28;20054;-73
2022/09/17 02:11:57;;;;;;;18.40;3.45;;;9.30;99.90;;;;;;5006116;28;20053;-72
2022/09/17 02:14:29;;;;;;;15.35;2.75;;;9.20;99.90;;;;;;5014520;28;20057;-72
2022/09/17 02:17:03;;;;;;;16.85;3.10;;;9.10;99.90;;;;;;5014955;28;20046;-73
2022/09/17 02:19:36;;;;;;;16.27;3.13;;;9.10;99.90;;;;;;5027928;28;20057;-72
2022/09/17 02:22:35;;;;;;;23.33;3.50;;;9.00;99.90;;;;;;5004342;28;20057;-73
2022/09/17 02:25:19;;;;;;;13.57;3.05;;;8.90;99.90;;;;;;5021649;28;20463;-71
2022/09/17 02:28:18;;;;;;;18.33;3.42;;;8.80;99.90;;;;;;5024339;28;20445;-74
2022/09/17 02:30:44;;;;;;;18.88;3.00;;;8.80;99.90;;;;;;5033403;28;20057;-72
2022/09/17 02:33:12;;;;;;;19.92;3.50;;;8.80;99.90;;;;;;5021502;28;20059;-71
2022/09/17 02:35:38;;;;;;;15.85;3.30;;;8.70;99.90;;;;;;5007039;28;20458;-73
2022/09/17 02:38:04;;;;;;;18.33;3.58;;;8.70;99.90;;;;;;5007923;28;20073;-70
2022/09/17 02:40:36;;;;;;;17.77;3.85;;;8.80;99.90;;;;;;5016537;28;20041;-71
2022/09/17 02:43:27;;;;;;;24.42;3.78;;;8.90;99.90;;;;;;5031126;28;20084;-71
2022/09/17 02:46:25;;;;;;;18.17;4.18;;;9.00;99.90;;;;;;5032279;28;20060;-72
2022/09/17 02:49:06;;;;;;;22.33;3.85;;;9.10;99.90;;;;;;5008265;28;20043;-73
2022/09/17 02:51:52;;;;;;;19.65;3.28;;;9.20;99.90;;;;;;5019465;28;20155;-72
2022/09/17 02:54:28;;;;;;;18.25;3.33;;;9.30;99.90;;;;;;5026871;28;20046;-73
2022/09/17 02:57:02;;;;;;;23.50;4.07;;;9.30;99.90;;;;;;5000424;28;20109;-72
2022/09/17 02:59:34;;;;;;;14.75;2.92;;;9.30;99.90;;;;;;4992833;28;20060;-73
2022/09/17 03:02:21;;;;;;;17.23;3.00;;;9.20;99.90;;;;;;5009146;28;20053;-72
2022/09/17 03:04:48;;;;;;;20.38;3.17;;;9.30;99.90;;;;;;5021155;28;20045;-73
2022/09/17 03:07:18;;;;;;;21.05;3.17;;;9.10;99.90;;;;;;5034747;28;20060;-71
2022/09/17 03:09:43;;;;;;;23.30;4.00;;;9.20;99.90;;;;;;5030032;28;20037;-72
2022/09/17 03:12:10;;;;;;;12.65;3.20;;;9.20;99.90;;;;;;5029828;28;20040;-72
2022/09/17 03:14:36;;;;;;;16.77;2.85;;;9.20;99.90;;;;;;5029927;28;20485;-74
2022/09/17 03:17:02;;;;;;;25.05;2.95;;;9.20;99.90;;;;;;5024528;28;20049;-72
2022/09/17 03:19:28;;;;;;;16.73;2.95;;;9.10;99.90;;;;;;5036926;28;20054;-72
2022/09/17 03:21:54;;;;;;;12.88;2.65;;;9.00;99.90;;;;;;5025734;28;20343;-73
2022/09/17 03:24:19;;;;;;;14.38;2.97;;;9.00;99.90;;;;;;5025484;28;20109;-71
2022/09/17 03:26:46;;;;;;;15.60;3.55;;;8.90;99.90;;;;;;5026607;28;20435;-73
2022/09/17 03:29:12;;;;;;;16.35;2.88;;;8.80;99.90;;;;;;5029953;28;20046;-73
2022/09/17 03:31:38;;;;;;;15.73;2.90;;;8.80;99.90;;;;;;5028294;28;20438;-73
2022/09/17 03:34:03;;;;;;;19.30;2.88;;;8.80;99.90;;;;;;5037256;28;20053;-72
2022/09/17 03:36:29;;;;;;;15.90;2.95;;;8.70;99.90;;;;;;5031518;28;20045;-72
2022/09/17 03:38:56;;;;;;;12.20;2.40;;;8.70;99.90;;;;;;5008601;28;20046;-72
2022/09/17 03:41:22;;;;;;;14.68;2.67;;;8.60;99.90;;;;;;5032081;28;20037;-72
2022/09/17 03:43:47;;;;;;;19.15;3.60;;;8.70;99.90;;;;;;5018027;28;20048;-73
2022/09/17 03:46:13;;;;;;;16.92;2.72;;;8.70;99.90;;;;;;5024463;28;20038;-72
2022/09/17 03:48:38;;;;;;;16.33;2.33;;;8.90;99.90;;;;;;5020878;28;20041;-73
2022/09/17 03:51:04;;;;;;;12.45;2.88;;;9.00;99.90;;;;;;5014884;28;20065;-72
2022/09/17 03:53:30;;;;;;;13.98;2.55;;;9.20;99.90;;;;;;5020215;28;20077;-73
2022/09/17 03:56:01;;;;;;;8.77;2.30;;;9.20;99.90;;;;;;5014366;28;20198;-74
2022/09/17 03:58:28;;;;;;;16.42;2.80;;;9.30;99.90;;;;;;5014994;28;20038;-73
2022/09/17 04:00:56;;;;;;;13.15;2.60;;;9.30;99.90;;;;;;5028970;28;20049;-73
2022/09/17 04:03:23;;;;;;;15.40;2.70;;;9.30;99.90;;;;;;5032718;28;20049;-72
2022/09/17 04:05:49;;;;;;;11.43;2.72;;;9.30;99.90;;;;;;5034500;28;20042;-73
2022/09/17 04:08:14;;;;;;;17.70;2.67;;;9.30;99.90;;;;;;5024117;28;20117;-73
2022/09/17 04:10:40;;;;;;;15.05;2.80;;;9.30;99.90;;;;;;5013667;28;20365;-73
2022/09/17 04:13:05;;;;;;;11.18;2.20;;;9.10;99.90;;;;;;5023197;28;20107;-73
2022/09/17 04:15:31;;;;;;;12.85;2.88;;;9.10;99.90;;;;;;5036099;28;20103;-73
2022/09/17 04:17:57;;;;;;;19.10;3.00;;;9.10;99.90;;;;;;5013908;28;20131;-73
2022/09/17 04:20:24;;;;;;;19.88;3.38;;;9.00;99.90;;;;;;5037192;28;20061;-72
2022/09/17 04:22:50;;;;;;;13.25;2.17;;;8.90;99.90;;;;;;5029626;28;20053;-74
2022/09/17 04:25:15;;;;;;;17.55;2.60;;;8.90;99.90;;;;;;5025527;28;20068;-75
2022/09/17 04:27:42;;;;;;;14.45;2.50;;;8.70;99.90;;;;;;5022700;28;20446;-72
2022/09/17 04:30:08;;;;;;;13.18;2.70;;;8.70;99.90;;;;;;5028421;28;20339;-73
2022/09/17 04:32:33;;;;;;;11.38;2.10;;;8.60;99.90;;;;;;5019802;28;20102;-72
2022/09/17 04:34:59;;;;;;;17.92;3.08;;;8.50;99.90;;;;;;5036314;28;20125;-72
2022/09/17 04:37:24;;;;;;;14.55;2.60;;;8.50;99.90;;;;;;5036796;28;20101;-72
2022/09/17 04:39:50;;;;;;;15.10;3.13;;;8.50;99.90;;;;;;5019777;28;20052;-74
2022/09/17 04:42:16;;;;;;;15.88;2.72;;;8.40;99.90;;;;;;5036984;28;20045;-75
2022/09/17 04:44:42;;;;;;;19.48;3.05;;;8.40;99.90;;;;;;5036559;28;20478;-73
2022/09/17 04:47:07;;;;;;;19.98;2.65;;;8.40;99.90;;;;;;5028703;28;20104;-73
2022/09/17 04:49:33;;;;;;;18.88;3.15;;;8.40;99.90;;;;;;5030533;28;20041;-72
2022/09/17 04:51:59;;;;;;;16.95;3.47;;;8.40;99.90;;;;;;5029082;28;20123;-74
2022/09/17 04:54:24;;;;;;;20.77;3.40;;;8.40;99.90;;;;;;5036461;28;20104;-73
2022/09/17 04:56:50;;;;;;;13.57;2.90;;;8.40;99.90;;;;;;5028968;28;20049;-75
2022/09/17 04:59:15;;;;;;;14.77;2.47;;;8.40;99.90;;;;;;5036007;28;20095;-73
2022/09/17 05:01:42;;;;;;;12.32;2.80;;;8.40;99.90;;;;;;5036141;28;20050;-72
2022/09/17 05:04:08;;;;;;;17.33;3.22;;;8.30;99.90;;;;;;5035851;28;20465;-72
2022/09/17 05:06:34;;;;;;;11.15;2.60;;;8.30;99.90;;;;;;5036084;28;20473;-74
2022/09/17 05:09:00;;;;;;;15.93;2.90;;;8.30;99.90;;;;;;5023262;28;20041;-73
2022/09/17 05:11:27;;;;;;;13.98;2.60;;;8.20;99.90;;;;;;5028544;28;20049;-72
2022/09/17 05:13:53;;;;;;;15.13;2.53;;;8.20;99.90;;;;;;5014297;28;20046;-72
2022/09/17 05:16:19;;;;;;;18.70;3.47;;;8.20;99.90;;;;;;5011779;28;20056;-73
2022/09/17 05:18:44;;;;;;;22.20;3.70;;;8.20;99.90;;;;;;5035735;28;20128;-72
2022/09/17 05:21:10;;;;;;;15.07;3.17;;;8.20;99.90;;;;;;5031779;28;20048;-74
2022/09/17 05:23:36;;;;;;;23.05;4.68;;;8.20;99.90;;;;;;5021545;28;20506;-71
2022/09/17 05:26:02;;;;;;;29.27;5.90;;;8.20;99.90;;;;;;5024957;28;20057;-72
2022/09/17 05:28:28;;;;;;;21.25;5.55;;;8.20;99.90;;;;;;5020924;28;20041;-72
2022/09/17 05:30:53;;;;;;;23.00;4.70;;;8.30;99.90;;;;;;5019654;28;20046;-73
2022/09/17 05:33:19;;;;;;;25.08;4.25;;;8.30;99.90;;;;;;5026762;28;20049;-72
2022/09/17 05:35:45;;;;;;;25.80;4.68;;;8.40;99.90;;;;;;5008121;28;20064;-73
2022/09/17 05:38:11;;;;;;;23.10;4.60;;;8.40;99.90;;;;;;5015906;28;20450;-71
2022/09/17 05:40:37;;;;;;;25.25;4.45;;;8.50;99.90;;;;;;5025555;28;20053;-71
2022/09/17 05:43:06;;;;;;;21.85;3.88;;;8.70;99.90;;;;;;5016222;28;20046;-73
2022/09/17 05:45:33;;;;;;;20.25;4.00;;;8.90;99.90;;;;;;5014165;28;20046;-72
2022/09/17 05:48:00;;;;;;;20.67;3.28;;;9.10;99.90;;;;;;5031450;28;20029;-73
2022/09/17 05:50:27;;;;;;;19.15;3.35;;;9.30;99.90;;;;;;5033872;28;20136;-71
2022/09/17 05:52:54;;;;;;;15.30;3.28;;;9.40;99.90;;;;;;5028680;28;20037;-75
2022/09/17 05:55:21;;;;;;;15.40;3.47;;;9.60;99.90;;;;;;5022931;28;20092;-72
2022/09/17 05:57:47;;;;;;;15.27;2.90;;;9.80;99.90;;;;;;5023713;28;20033;-74
2022/09/17 06:00:13;;;;;;;12.57;2.88;;;9.90;99.90;;;;;;5031361;28;20136;-71
2022/09/17 06:02:39;;;;;;;11.65;2.10;;;9.90;99.90;;;;;;5028585;28;20116;-73
2022/09/17 06:05:05;;;;;;;9.77;2.30;;;9.90;99.90;;;;;;5028499;28;20478;-74
2022/09/17 06:07:30;;;;;;;10.77;1.90;;;10.00;99.90;;;;;;5030043;28;20045;-73
2022/09/17 06:09:56;;;;;;;9.80;2.10;;;10.00;99.90;;;;;;5027867;28;20515;-75
2022/09/17 06:12:22;;;;;;;7.55;1.80;;;10.00;99.90;;;;;;5028312;28;20069;-73
2022/09/17 06:14:47;;;;;;;9.00;1.85;;;10.00;99.90;;;;;;5030703;28;20045;-72
2022/09/17 06:17:13;;;;;;;15.23;2.17;;;10.00;99.90;;;;;;5031683;28;20446;-73
2022/09/17 06:19:39;;;;;;;10.15;2.08;;;10.00;99.90;;;;;;5031736;28;20154;-72
2022/09/17 06:22:04;;;;;;;11.18;1.90;;;10.00;99.90;;;;;;5028718;28;20521;-73
2022/09/17 06:24:31;;;;;;;10.13;2.03;;;10.00;99.90;;;;;;5030854;28;20064;-74
2022/09/17 06:26:57;;;;;;;9.77;2.13;;;9.90;99.90;;;;;;5031102;28;20095;-73
2022/09/17 06:29:22;;;;;;;10.95;2.10;;;9.90;99.90;;;;;;5025441;28;20116;-73
2022/09/17 06:31:48;;;;;;;7.65;1.75;;;9.90;99.90;;;;;;5017040;28;20158;-75
2022/09/17 06:34:14;;;;;;;11.00;2.05;;;9.80;99.90;;;;;;5031788;28;20046;-74
2022/09/17 06:36:39;;;;;;;11.13;2.17;;;9.80;99.90;;;;;;5029782;28;20185;-74
2022/09/17 06:39:05;;;;;;;8.60;2.47;;;9.70;99.90;;;;;;5032797;28;20045;-73
2022/09/17 06:41:32;;;;;;;12.40;2.58;;;9.80;99.90;;;;;;5032466;28;20086;-72
2022/09/17 06:43:58;;;;;;;14.60;2.60;;;9.60;99.90;;;;;;5034927;28;20056;-75
2022/09/17 06:46:24;;;;;;;15.30;3.03;;;9.60;99.90;;;;;;5034453;28;20046;-74
2022/09/17 06:48:50;;;;;;;14.65;3.20;;;9.70;99.90;;;;;;5034157;28;20045;-71
2022/09/17 06:51:16;;;;;;;13.68;2.72;;;9.90;99.90;;;;;;5032287;28;20044;-73
2022/09/17 06:53:41;;;;;;;11.65;3.00;;;10.30;99.90;;;;;;5036493;28;20107;-74
2022/09/17 06:56:08;;;;;;;12.40;2.83;;;10.60;99.90;;;;;;5035948;28;20049;-72
2022/09/17 06:58:40;;;;;;;11.35;2.05;;;10.70;99.90;;;;;;5023283;28;20034;-75
2022/09/17 07:01:06;;;;;;;8.45;2.05;;;10.70;99.90;;;;;;5034999;28;20053;-73
2022/09/17 07:03:32;;;;;;;10.27;2.15;;;10.70;99.90;;;;;;5017890;28;20060;-74
2022/09/17 07:05:58;;;;;;;7.97;1.60;;;10.70;99.90;;;;;;5036883;28;20053;-72
2022/09/17 07:08:24;;;;;;;9.70;1.92;;;10.60;99.90;;;;;;5039133;28;20068;-74
2022/09/17 07:10:53;;;;;;;11.60;2.35;;;10.60;99.90;;;;;;5030838;28;20112;-72
2022/09/17 07:13:19;;;;;;;12.07;2.47;;;10.60;99.90;;;;;;5033858;28;20116;-72
2022/09/17 07:15:52;;;;;;;11.38;2.13;;;10.70;99.90;;;;;;5029397;28;20126;-72
2022/09/17 07:18:17;;;;;;;11.10;1.95;;;10.70;99.90;;;;;;5034396;28;20071;-74
2022/09/17 07:20:43;;;;;;;8.45;1.90;;;10.80;99.90;;;;;;5024962;28;20450;-73
2022/09/17 07:23:08;;;;;;;9.85;1.80;;;10.90;99.90;;;;;;5025997;28;20048;-72
2022/09/17 07:25:34;;;;;;;11.95;2.53;;;11.10;99.90;;;;;;5033055;28;20045;-73
2022/09/17 07:28:01;;;;;;;7.78;1.83;;;11.30;99.90;;;;;;5019682;28;20072;-74
2022/09/17 07:30:27;;;;;;;7.90;1.83;;;11.40;99.90;;;;;;5037277;28;20079;-72
2022/09/17 07:32:52;;;;;;;12.48;2.50;;;11.50;99.90;;;;;;5000684;28;20425;-72
2022/09/17 07:35:18;;;;;;;13.02;2.88;;;11.50;99.90;;;;;;5028939;28;20386;-73
2022/09/17 07:37:44;;;;;;;11.88;1.95;;;11.40;99.90;;;;;;5027123;28;20369;-72
2022/09/17 07:40:09;;;;;;;8.80;1.85;;;11.40;99.90;;;;;;5041340;28;20441;-73
2022/09/17 07:42:35;;;;;;;11.50;2.88;;;11.30;99.90;;;;;;5033216;28;20127;-74
2022/09/17 07:45:01;;;;;;;9.45;2.42;;;11.30;99.90;;;;;;5027132;28;20065;-71
2022/09/17 07:47:26;;;;;;;13.23;2.33;;;11.50;99.90;;;;;;5011360;28;20037;-73
2022/09/17 07:49:52;;;;;;;14.75;2.83;;;11.40;99.90;;;;;;5041930;28;20049;-72
2022/09/17 07:52:18;;;;;;;11.18;2.33;;;11.50;99.90;;;;;;5045063;28;20037;-73
2022/09/17 07:54:43;;;;;;;14.43;3.13;;;11.60;99.90;;;;;;5033588;28;20063;-73
2022/09/17 07:57:09;;;;;;;10.63;1.92;;;11.60;99.90;;;;;;5027934;28;20059;-73
2022/09/17 07:59:34;;;;;;;11.48;2.25;;;11.60;99.90;;;;;;5040582;28;20080;-75
2022/09/17 08:02:00;;;;;;;16.58;2.78;;;11.70;99.90;;;;;;5020731;28;20054;-71
2022/09/17 08:04:25;;;;;;;11.65;2.20;;;11.80;99.90;;;;;;5040446;28;20116;-71
2022/09/17 08:06:51;;;;;;;14.30;3.05;;;12.00;99.90;;;;;;5039325;28;20037;-75
2022/09/17 08:09:17;;;;;;;12.02;2.38;;;12.20;99.90;;;;;;5028572;28;20112;-70
2022/09/17 08:11:43;;;;;;;14.98;2.50;;;12.40;99.90;;;;;;5042157;28;20042;-71
2022/09/17 08:14:11;;;;;;;11.55;2.45;;;12.40;99.90;;;;;;5013429;28;20116;-72
2022/09/17 08:16:37;;;;;;;11.13;2.65;;;12.40;99.90;;;;;;5039391;28;20049;-72
2022/09/17 08:19:03;;;;;;;13.55;1.88;;;12.30;99.90;;;;;;5039908;28;20045;-72
2022/09/17 08:21:28;;;;;;;16.90;3.65;;;12.30;99.90;;;;;;5026602;28;20056;-72
2022/09/17 08:23:54;;;;;;;10.63;2.00;;;12.50;99.90;;;;;;5028320;28;20145;-73
2022/09/17 08:26:21;;;;;;;10.90;2.20;;;12.60;99.90;;;;;;5013395;28;20052;-69
2022/09/17 08:28:55;;;;;;;9.50;1.95;;;12.40;99.90;;;;;;5011265;28;20042;-71
2022/09/17 08:31:21;;;;;;;;;;;12.20;99.90;;;;;;5017484;28;20046;-72
2022/09/17 08:33:47;;;;;;;11.15;1.83;;;12.00;99.90;;;;;;5032173;28;20356;-72
2022/09/17 08:36:16;;;;;;;7.22;2.03;;;12.00;99.90;;;;;;5036363;28;20057;-72
2022/09/17 08:38:41;;;;;;;8.88;2.17;;;11.80;99.90;;;;;;5036308;28;20061;-72
2022/09/17 08:41:10;;;;;;;13.25;2.22;;;11.80;99.90;;;;;;5036565;28;20066;-71
2022/09/17 08:44:02;;;;;;;12.43;2.20;;;11.70;99.90;;;;;;4986287;28;20502;-71
2022/09/17 08:46:41;;;;;;;9.95;3.20;;;11.80;99.90;;;;;;4999705;28;20042;-72
2022/09/17 08:49:14;;;;;;;9.43;1.80;;;11.90;99.90;;;;;;5019743;28;20050;-73
2022/09/17 08:52:14;;;;;;;11.32;2.33;;;12.10;99.90;;;;;;5032327;28;20045;-73
2022/09/17 08:55:03;;;;;;;10.38;2.00;;;12.10;99.90;;;;;;5036378;28;20080;-72
2022/09/17 08:57:57;;;;;;;11.95;1.75;;;12.10;99.90;;;;;;5019312;28;20466;-73
2022/09/17 09:00:23;;;;;;;10.32;1.70;;;12.30;99.90;;;;;;5032562;28;20050;-72
2022/09/17 09:02:49;;;;;;;9.60;1.85;;;12.60;99.90;;;;;;5015617;28;20057;-72
2022/09/17 09:05:22;;;;;;;7.80;1.73;;;12.80;99.90;;;;;;5018784;28;20053;-71
2022/09/17 09:07:56;;;;;;;10.23;1.70;;;12.80;99.90;;;;;;5018446;28;20111;-73
2022/09/17 09:10:36;;;;;;;12.30;2.15;;;13.00;99.90;;;;;;5035407;28;20201;-72
2022/09/17 09:13:03;;;;;;;9.82;1.90;;;13.00;99.90;;;;;;5035954;28;20049;-72
2022/09/17 09:15:43;;;;;;;9.23;1.55;;;12.90;99.90;;;;;;5035698;28;20537;-70
2022/09/17 09:18:34;;;;;;;11.32;1.70;;;12.90;99.90;;;;;;5043043;28;20045;-69
2022/09/17 09:21:07;;;;;;;9.05;1.83;;;12.80;99.90;;;;;;5010830;28;20386;-69
2022/09/17 09:23:45;;;;;;;9.05;2.22;;;12.90;99.90;;;;;;5036318;28;20056;-70
2022/09/17 09:26:16;;;;;;;8.73;1.63;;;13.10;99.90;;;;;;5035906;28;20056;-71
2022/09/17 09:29:09;;;;;;;7.43;1.92;;;13.20;99.90;;;;;;5035865;28;20045;-70
2022/09/17 09:32:06;;;;;;;10.73;2.20;;;13.00;99.90;;;;;;5036210;28;20124;-71
2022/09/17 09:34:33;;;;;;;9.70;2.13;;;12.80;99.90;;;;;;5036013;28;20469;-73
2022/09/17 09:37:29;;;;;;;12.57;2.20;;;12.80;99.90;;;;;;5030297;28;20085;-70
2022/09/17 09:40:03;;;;;;;7.13;2.05;;;12.70;99.90;;;;;;5035128;28;20076;-72
2022/09/17 09:42:33;;;;;;;10.55;2.85;;;12.80;99.90;;;;;;5019038;28;20056;-73
2022/09/17 09:45:21;;;;;;;8.60;2.22;;;13.00;99.90;;;;;;5035971;28;20103;-75
2022/09/17 09:48:27;;;;;;;14.85;2.20;;;13.10;99.90;;;;;;5035341;28;20064;-72
2022/09/17 09:51:07;;;;;;;13.80;2.53;;;12.80;99.90;;;;;;5030161;28;20121;-72
2022/09/17 09:53:42;;;;;;;10.90;2.13;;;12.50;99.90;;;;;;5015412;28;20049;-74
2022/09/17 09:56:33;;;;;;;11.95;2.22;;;12.30;99.90;;;;;;5015671;28;20046;-74
2022/09/17 09:58:58;;;;;;;8.88;1.95;;;12.30;99.90;;;;;;5015826;28;20042;-72
2022/09/17 10:01:27;;;;;;;12.55;2.03;;;12.40;99.90;;;;;;5015362;28;20335;-73
2022/09/17 10:03:54;;;;;;;10.30;2.40;;;12.40;99.90;;;;;;5015830;28;20058;-73
2022/09/17 10:06:20;;;;;;;15.55;2.28;;;12.70;99.90;;;;;;5015383;28;20045;-71
2022/09/17 10:08:48;;;;;;;9.43;2.38;;;12.90;99.90;;;;;;5015533;28;20038;-74
2022/09/17 10:11:25;;;;;;;12.93;2.53;;;13.20;99.90;;;;;;5016394;28;20413;-74
2022/09/17 10:13:51;;;;;;;13.77;2.40;;;13.40;99.90;;;;;;4997876;28;20458;-71
2022/09/17 10:16:17;;;;;;;13.73;2.30;;;13.70;99.90;;;;;;5015285;28;20042;-72
2022/09/17 10:18:43;;;;;;;9.80;2.38;;;13.80;99.90;;;;;;4998349;28;20045;-72
2022/09/17 10:21:18;;;;;;;13.75;2.63;;;14.00;99.90;;;;;;5014945;28;20053;-73
2022/09/17 10:23:44;;;;;;;14.52;2.15;;;14.10;99.90;;;;;;5015349;28;20100;-71
2022/09/17 10:26:24;;;;;;;10.55;2.20;;;14.20;99.90;;;;;;5015493;28;20042;-71
2022/09/17 10:28:55;;;;;;;15.63;3.03;;;14.50;99.90;;;;;;4980547;28;20124;-73
2022/09/17 10:31:21;;;;;;;11.20;2.30;;;14.60;99.90;;;;;;5015140;28;20053;-73
2022/09/17 10:33:58;;;;;;;9.80;2.08;;;14.60;99.90;;;;;;5014895;28;20439;-72
2022/09/17 10:36:43;;;;;;;8.35;1.88;;;14.50;99.90;;;;;;5015235;28;20058;-75
2022/09/17 10:39:30;;;;;;;8.18;2.00;;;14.10;99.90;;;;;;5018937;28;20037;-72
2022/09/17 10:41:59;;;;;;;10.43;2.25;;;13.70;99.90;;;;;;5017453;28;20053;-75
2022/09/17 10:44:28;;;;;;;16.83;2.58;;;13.20;99.90;;;;;;5034896;28;20041;-73
2022/09/17 10:47:03;;;;;;;12.65;2.40;;;12.90;99.90;;;;;;5043172;28;20107;-75
2022/09/17 10:49:45;;;;;;;10.32;2.53;;;12.70;99.90;;;;;;5055061;28;20053;-74
2022/09/17 10:52:29;;;;;;;16.65;2.40;;;12.70;99.90;;;;;;5037885;28;20060;-76
2022/09/17 10:55:25;;;;;;;11.35;2.70;;;12.70;99.90;;;;;;5029845;28;20054;-75
2022/09/17 10:58:04;;;;;;;14.90;2.75;;;12.80;99.90;;;;;;4997645;28;20049;-72
2022/09/17 11:00:48;;;;;;;14.45;3.33;;;12.80;99.90;;;;;;5015142;28;20063;-74
2022/09/17 11:03:38;;;;;;;14.70;2.97;;;12.80;99.90;;;;;;4998097;28;20116;-73
2022/09/17 11:06:33;;;;;;;13.95;2.40;;;12.90;99.90;;;;;;5014820;28;20458;-72
2022/09/17 11:09:17;;;;;;;14.88;2.83;;;13.10;99.90;;;;;;5021404;28;20079;-73
2022/09/17 11:11:51;;;;;;;13.05;2.53;;;13.10;99.90;;;;;;5034680;28;20045;-75
2022/09/17 11:14:42;;;;;;;12.80;2.58;;;13.10;99.90;;;;;;5017215;28;20115;-73
2022/09/17 11:17:18;;;;;;;11.10;2.45;;;13.00;99.90;;;;;;5034576;28;20037;-73
2022/09/17 11:19:55;;;;;;;10.98;2.28;;;13.00;99.90;;;;;;5034509;28;20057;-72
2022/09/17 11:22:48;;;;;;;13.80;2.85;;;13.10;99.90;;;;;;5016989;28;20466;-74
2022/09/17 11:25:35;;;;;;;18.45;3.33;;;13.30;99.90;;;;;;5019854;28;20041;-74
2022/09/17 11:28:06;;;;;;;14.02;2.78;;;13.40;99.90;;;;;;5038306;28;20058;-73
2022/09/17 11:30:53;;;;;;;20.95;3.13;;;13.70;99.90;;;;;;5038408;28;20132;-72
2022/09/17 11:33:26;;;;;;;12.27;3.22;;;13.90;99.90;;;;;;5038664;28;20096;-74
2022/09/17 11:35:59;;;;;;;8.80;2.83;;;13.80;99.90;;;;;;5038164;28;20128;-76
2022/09/17 11:38:42;;;;;;;15.60;2.77;;;13.80;99.90;;;;;;5037346;28;20044;-77
2022/09/17 11:41:11;;;;;;;;;;;13.80;99.90;;;;;;5038430;28;20128;-76
2022/09/17 11:44:01;;;;;;;14.05;2.85;;;13.80;99.90;;;;;;5020488;28;19920;-76
2022/09/17 11:46:33;;;;;;;19.23;2.42;;;13.80;99.90;;;;;;5021312;28;20067;-76
2022/09/17 11:49:12;;;;;;;19.23;2.72;;;13.90;99.90;;;;;;5037970;28;20049;-76
2022/09/17 11:52:00;;;;;;;12.18;2.72;;;13.90;99.90;;;;;;5038029;28;20052;-72
2022/09/17 11:54:30;;;;;;;12.65;3.03;;;14.10;99.90;;;;;;5037488;28;20361;-72
2022/09/17 11:57:10;;;;;;;11.02;3.00;;;14.30;99.90;;;;;;5020820;28;20049;-72
2022/09/17 11:59:53;;;;;;;16.88;2.90;;;14.60;99.90;;;;;;5038138;28;20081;-74
2022/09/17 12:02:49;;;;;;;16.20;2.72;;;14.90;99.90;;;;;;5037564;28;20045;-72
2022/09/17 12:05:52;;;;;;;13.95;2.80;;;15.10;99.90;;;;;;5036192;28;20053;-73
2022/09/17 12:08:51;;;;;;;13.33;2.60;;;15.10;99.90;;;;;;5032654;28;20057;-73
2022/09/17 12:11:48;;;;;;;16.83;3.33;;;15.00;99.90;;;;;;5017595;28;20046;-74
2022/09/17 12:14:23;;;;;;;12.32;3.03;;;14.90;99.90;;;;;;5017315;28;20058;-75
2022/09/17 12:16:55;;;;;;;15.13;3.13;;;14.70;99.90;;;;;;5000316;28;20042;-72
2022/09/17 12:19:43;;;;;;;12.57;3.10;;;14.80;99.90;;;;;;5017696;28;20061;-72
2022/09/17 12:22:21;;;;;;;14.98;2.90;;;14.80;99.90;;;;;;5017747;28;20058;-73
2022/09/17 12:24:50;;;;;;;10.25;2.50;;;15.00;99.90;;;;;;5017210;28;20046;-73
2022/09/17 12:27:31;;;;;;;8.98;1.85;;;15.10;99.90;;;;;;5000325;28;20140;-70
2022/09/17 12:30:02;;;;;;;11.18;2.13;;;15.20;99.90;;;;;;5035477;28;20442;-74
2022/09/17 12:32:34;;;;;;;10.65;2.00;;;15.40;99.90;;;;;;5037543;28;20351;-72
2022/09/17 12:35:26;;;;;;;11.10;2.40;;;15.20;99.90;;;;;;5037195;28;20053;-74
2022/09/17 12:38:26;;;;;;;13.52;2.75;;;15.20;99.90;;;;;;5032192;28;20038;-73
2022/09/17 12:41:18;;;;;;;13.13;2.67;;;15.20;99.90;;;;;;5016992;28;20085;-74
2022/09/17 12:44:14;;;;;;;11.98;2.25;;;15.40;99.90;;;;;;5017293;28;20061;-72
2022/09/17 12:47:07;;;;;;;16.88;3.38;;;15.40;99.90;;;;;;5017079;28;20069;-74
2022/09/17 12:49:54;;;;;;;14.57;3.13;;;15.40;99.90;;;;;;5017272;28;20050;-74
2022/09/17 12:52:41;;;;;;;10.18;2.50;;;15.40;99.90;;;;;;5016648;28;20045;-74
2022/09/17 12:55:24;;;;;;;7.97;2.33;;;15.30;99.90;;;;;;5017044;28;20061;-73
2022/09/17 12:58:23;;;;;;;9.73;2.28;;;15.10;99.90;;;;;;5017157;28;20077;-77
2022/09/17 13:01:00;;;;;;;14.70;3.13;;;15.20;99.90;;;;;;5019343;28;20046;-76
2022/09/17 13:03:43;;;;;;;12.45;2.85;;;15.40;99.90;;;;;;5017935;28;20108;-73
2022/09/17 13:06:22;;;;;;;15.05;2.97;;;15.70;99.90;;;;;;5036470;28;20366;-74
2022/09/17 13:09:15;;;;;;;19.73;2.85;;;15.90;99.90;;;;;;5007148;28;20091;-73
2022/09/17 13:11:46;;;;;;;10.75;2.70;;;15.80;99.90;;;;;;5035426;28;20049;-74